Stamford Pioneer — VRJD7 — position and weather

sailwx.info

Track history (hours):
 
Tides and Currents Weather Stations Pressure Air Temp Water Temp Dewpoint Dewpoint Depression Visibility Wind Speed Wind Dir Waves Ship Positions

Stamford Pioneer

Last reported at 2014-Aug-26 22:03 UTC. Time now 2014-Sep-02 19:19 UTC.
Position S 23°24' W 040°34'.

Length 180 m; draft 6.2 m.

Type: Cargo ship. MMSI: 477462800.

Date/timePositionNaut miles runAvg speedWind from/ knotsBaromVisibWave heightAir tempDewpointWater temp
2014-Aug-26 22:03S 23°24' W 040°34'5 9.2
2014-Aug-26 21:31S 23°28' W 040°38'9 9.3
2014-Aug-26 20:33S 23°34' W 040°45'11 9.2
2014-Aug-26 19:24S 23°36' W 040°56'7 8.3
2014-Aug-26 18:33S 23°37' W 041°03'8 7.8
2014-Aug-26 17:33S 23°39' W 041°12'8 7.4
2014-Aug-26 16:26S 23°40' W 041°21'27010.7
2014-Aug-25 15:13S 24°13' W 046°14'1011.1
2014-Aug-25 14:17S 24°06' W 046°23'710.0
2014-Aug-25 13:33S 23°60' W 046°20'5 4.8
2014-Aug-25 12:32S 23°55' W 046°22'3 2.7
2014-Aug-25 11:29S 23°52' W 046°22'0 0.0
2014-Aug-25 10:33S 23°52' W 046°22'0 0.0
2014-Aug-25 09:33S 23°52' W 046°22'0 0.0
2014-Aug-25 08:33S 23°52' W 046°22'0 0.0
2014-Aug-25 07:33S 23°52' W 046°22'0 0.0
2014-Aug-25 06:32S 23°52' W 046°22'0 0.0
2014-Aug-25 05:29S 23°52' W 046°22'0 0.0
2014-Aug-25 04:29S 23°52' W 046°22'0 0.0
2014-Aug-25 02:21S 23°52' W 046°22'0 0.0
2014-Aug-25 01:21S 23°52' W 046°22'0 0.0
2014-Aug-25 00:19S 23°52' W 046°22'0 0.0
2014-Aug-24 11:29S 23°52' W 046°22'0 0.0
2014-Aug-24 10:33S 23°52' W 046°22'0 0.0
2014-Aug-22 11:21S 23°52' W 046°22'0 0.0
2014-Aug-22 10:32S 23°52' W 046°22'0 0.0
2014-Aug-22 09:33S 23°52' W 046°22'0 0.0
2014-Aug-22 08:24S 23°52' W 046°22'0 0.0
2014-Aug-22 07:28S 23°52' W 046°22'0 0.0
2014-Aug-22 06:31S 23°52' W 046°22'0 0.0
2014-Aug-22 05:12S 23°52' W 046°22'0 0.0
2014-Aug-22 04:07S 23°52' W 046°22'0 0.0
2014-Aug-22 03:31S 23°52' W 046°22'0 0.0
2014-Aug-21 12:29S 23°52' W 046°22'0 0.0
2014-Aug-21 11:21S 23°52' W 046°22'0 0.0
2014-Aug-21 10:33S 23°52' W 046°22'0 0.0
2014-Aug-21 09:34S 23°52' W 046°22'0 0.0
2014-Aug-21 08:31S 23°52' W 046°22'0 0.0
2014-Aug-21 07:14S 23°52' W 046°22'0 0.0
2014-Aug-20 13:11S 23°52' W 046°22'0 0.0
2014-Aug-20 12:30S 23°52' W 046°22'0 0.0
2014-Aug-20 02:28S 23°52' W 046°22'0 0.0
2014-Aug-20 01:03S 23°52' W 046°22'1 2.3
2014-Aug-20 00:29S 23°54' W 046°23'6 6.2
2014-Aug-19 23:33S 23°58' W 046°18'6 5.6
2014-Aug-19 22:33S 24°03' W 046°20'7 6.6
2014-Aug-19 21:33S 24°08' W 046°16'1 0.4
2014-Aug-19 20:13S 24°08' W 046°15'0 0.0
2014-Aug-19 19:33S 24°08' W 046°15'0 0.0
2014-Aug-19 18:33S 24°09' W 046°15'0 0.0
2014-Aug-19 17:33S 24°09' W 046°15'0 0.0
2014-Aug-19 16:33S 24°09' W 046°15'0 0.0
2014-Aug-19 15:33S 24°09' W 046°15'0 0.0
2014-Aug-19 14:33S 24°09' W 046°15'0 0.0
2014-Aug-19 13:33S 24°09' W 046°15'0 0.0
2014-Aug-19 12:33S 24°09' W 046°15'4 3.6
2014-Aug-19 11:33S 24°10' W 046°19'  
Track history (hours):
 
Tides and Currents Weather Stations Pressure Air Temp Water Temp Dewpoint Dewpoint Depression Visibility Wind Speed Wind Dir Waves Ship Positions

Stamford Pioneer

Last reported at 2014-Aug-26 22:03 UTC. Time now 2014-Sep-02 19:19 UTC.
Position S 23°24' W 040°34'.

Length 180 m; draft 6.2 m.

Type: Cargo ship. MMSI: 477462800.

Date/timePositionNaut miles runAvg speedWind from/ knotsBaromVisibWave heightAir tempDewpointWater temp
2014-Aug-26 22:03S 23°24' W 040°34'5 9.2
2014-Aug-26 21:31S 23°28' W 040°38'9 9.3
2014-Aug-26 20:33S 23°34' W 040°45'11 9.2
2014-Aug-26 19:24S 23°36' W 040°56'7 8.3
2014-Aug-26 18:33S 23°37' W 041°03'8 7.8
2014-Aug-26 17:33S 23°39' W 041°12'8 7.4
2014-Aug-26 16:26S 23°40' W 041°21'27010.7
2014-Aug-25 15:13S 24°13' W 046°14'1011.1
2014-Aug-25 14:17S 24°06' W 046°23'710.0
2014-Aug-25 13:33S 23°60' W 046°20'5 4.8
2014-Aug-25 12:32S 23°55' W 046°22'3 2.7
2014-Aug-25 11:29S 23°52' W 046°22'0 0.0
2014-Aug-25 10:33S 23°52' W 046°22'0 0.0
2014-Aug-25 09:33S 23°52' W 046°22'0 0.0
2014-Aug-25 08:33S 23°52' W 046°22'0 0.0
2014-Aug-25 07:33S 23°52' W 046°22'0 0.0
2014-Aug-25 06:32S 23°52' W 046°22'0 0.0
2014-Aug-25 05:29S 23°52' W 046°22'0 0.0
2014-Aug-25 04:29S 23°52' W 046°22'0 0.0
2014-Aug-25 02:21S 23°52' W 046°22'0 0.0
2014-Aug-25 01:21S 23°52' W 046°22'0 0.0
2014-Aug-25 00:19S 23°52' W 046°22'0 0.0
2014-Aug-24 11:29S 23°52' W 046°22'0 0.0
2014-Aug-24 10:33S 23°52' W 046°22'0 0.0
2014-Aug-22 11:21S 23°52' W 046°22'0 0.0
2014-Aug-22 10:32S 23°52' W 046°22'0 0.0
2014-Aug-22 09:33S 23°52' W 046°22'0 0.0
2014-Aug-22 08:24S 23°52' W 046°22'0 0.0
2014-Aug-22 07:28S 23°52' W 046°22'0 0.0
2014-Aug-22 06:31S 23°52' W 046°22'0 0.0
2014-Aug-22 05:12S 23°52' W 046°22'0 0.0
2014-Aug-22 04:07S 23°52' W 046°22'0 0.0
2014-Aug-22 03:31S 23°52' W 046°22'0 0.0
2014-Aug-21 12:29S 23°52' W 046°22'0 0.0
2014-Aug-21 11:21S 23°52' W 046°22'0 0.0
2014-Aug-21 10:33S 23°52' W 046°22'0 0.0
2014-Aug-21 09:34S 23°52' W 046°22'0 0.0
2014-Aug-21 08:31S 23°52' W 046°22'0 0.0
2014-Aug-21 07:14S 23°52' W 046°22'0 0.0
2014-Aug-20 13:11S 23°52' W 046°22'0 0.0
2014-Aug-20 12:30S 23°52' W 046°22'0 0.0
2014-Aug-20 02:28S 23°52' W 046°22'0 0.0
2014-Aug-20 01:03S 23°52' W 046°22'1 2.3
2014-Aug-20 00:29S 23°54' W 046°23'6 6.2
2014-Aug-19 23:33S 23°58' W 046°18'6 5.6
2014-Aug-19 22:33S 24°03' W 046°20'7 6.6
2014-Aug-19 21:33S 24°08' W 046°16'1 0.4
2014-Aug-19 20:13S 24°08' W 046°15'0 0.0
2014-Aug-19 19:33S 24°08' W 046°15'0 0.0
2014-Aug-19 18:33S 24°09' W 046°15'0 0.0
2014-Aug-19 17:33S 24°09' W 046°15'0 0.0
2014-Aug-19 16:33S 24°09' W 046°15'0 0.0
2014-Aug-19 15:33S 24°09' W 046°15'0 0.0
2014-Aug-19 14:33S 24°09' W 046°15'0 0.0
2014-Aug-19 13:33S 24°09' W 046°15'0 0.0
2014-Aug-19 12:33S 24°09' W 046°15'4 3.6
2014-Aug-19 11:33S 24°10' W 046°19'  

Dump ship's entire track history